Time;durP1;ratioP1;P1;durP2;ratioP2;P2;SDS_P1;SDS_P2;PMS_P1;PMS_P2;Temp;Humidity;BMP_temperature;BMP_pressure;BME280_temperature;BME280_humidity;BME280_pressure;Samples;Min_cycle;Max_cycle;Signal;HPM_P1;HPM_P2
2021/05/10 00:01:13;;;;;;;6.00;3.10;;;19.80;1.00;;;;;;5055108;28;20171;-80
2021/05/10 00:03:39;;;;;;;4.73;2.97;;;19.80;1.00;;;;;;5055092;28;20198;-80
2021/05/10 00:06:05;;;;;;;6.23;2.57;;;19.90;1.00;;;;;;5055006;28;20166;-81
2021/05/10 00:08:31;;;;;;;4.10;2.80;;;19.80;1.00;;;;;;5053892;28;20213;-81
2021/05/10 00:10:57;;;;;;;4.37;3.13;;;19.90;99.90;;;;;;5055031;28;20218;-81
2021/05/10 00:13:23;;;;;;;5.07;2.80;;;19.90;99.90;;;;;;5055255;28;20250;-80
2021/05/10 00:15:49;;;;;;;3.80;2.47;;;20.00;99.90;;;;;;5055018;28;20173;-79
2021/05/10 00:18:15;;;;;;;6.00;2.50;;;19.90;99.90;;;;;;5057093;28;20310;-80
2021/05/10 00:20:44;;;;;;;5.40;2.50;;;20.10;99.90;;;;;;5073915;28;20192;-79
2021/05/10 00:23:12;;;;;;;3.80;2.57;;;20.00;99.90;;;;;;5075442;28;20174;-80
2021/05/10 00:25:38;;;;;;;5.03;2.37;;;20.00;99.90;;;;;;5075505;28;20192;-80
2021/05/10 00:28:04;;;;;;;5.23;2.77;;;19.90;99.90;;;;;;5074939;28;20208;-79
2021/05/10 00:30:31;;;;;;;4.67;2.70;;;20.00;99.90;;;;;;5073095;28;20281;-81
2021/05/10 00:32:57;;;;;;;4.27;2.50;;;20.00;99.90;;;;;;5058483;28;20220;-79
2021/05/10 00:35:23;;;;;;;4.60;2.40;;;20.00;93.40;;;;;;5054410;28;20175;-79
2021/05/10 00:37:49;;;;;;;5.13;2.60;;;20.30;4.80;;;;;;5054748;28;20177;-80
2021/05/10 00:40:18;;;;;;;7.57;2.77;;;20.30;1.00;;;;;;5054547;28;20254;-80
2021/05/10 00:42:44;;;;;;;4.80;2.60;;;20.20;1.00;;;;;;5052826;28;20179;-80
2021/05/10 00:45:10;;;;;;;4.53;2.70;;;20.30;1.00;;;;;;5052793;28;20621;-79
2021/05/10 00:47:36;;;;;;;4.33;2.60;;;20.30;1.00;;;;;;5054608;28;20206;-80
2021/05/10 00:50:07;;;;;;;4.27;2.50;;;20.40;99.90;;;;;;5054464;28;20170;-80
2021/05/10 00:52:32;;;;;;;4.43;2.47;;;20.40;99.90;;;;;;5054475;28;20232;-79
2021/05/10 00:54:58;;;;;;;5.70;2.73;;;20.40;99.90;;;;;;5054447;28;20209;-79
2021/05/10 00:57:25;;;;;;;4.20;2.47;;;20.40;99.90;;;;;;5053104;28;20204;-80
2021/05/10 00:59:52;;;;;;;3.17;2.40;;;20.40;1.00;;;;;;5054286;28;20179;-79
2021/05/10 01:02:19;;;;;;;5.07;2.70;;;20.20;1.00;;;;;;5053969;28;20203;-80
2021/05/10 01:04:45;;;;;;;5.97;2.37;;;20.20;1.00;;;;;;5053642;28;20189;-80
2021/05/10 01:07:14;;;;;;;5.00;2.43;;;20.10;1.00;;;;;;5054005;28;20674;-80
2021/05/10 01:09:39;;;;;;;6.20;2.80;;;20.20;99.90;;;;;;5054163;28;20174;-81
2021/05/10 01:12:06;;;;;;;6.87;2.43;;;20.10;99.90;;;;;;5052625;28;20658;-80
2021/05/10 01:14:33;;;;;;;2.70;1.90;;;20.10;99.90;;;;;;5054055;28;20189;-79
2021/05/10 01:16:59;;;;;;;4.67;2.57;;;19.90;99.90;;;;;;5053978;28;20173;-79
2021/05/10 01:19:26;;;;;;;3.03;2.03;;;19.70;99.90;;;;;;5052414;28;20665;-80
2021/05/10 01:21:54;;;;;;;3.63;2.10;;;19.60;1.00;;;;;;5054029;28;20208;-82
2021/05/10 01:24:20;;;;;;;4.87;2.53;;;19.80;1.00;;;;;;5053848;28;20249;-81
2021/05/10 01:26:45;;;;;;;4.80;2.60;;;19.80;99.90;;;;;;5053569;28;20668;-80
2021/05/10 01:29:11;;;;;;;5.33;2.77;;;19.90;99.90;;;;;;5053750;28;20178;-80
2021/05/10 01:31:37;;;;;;;5.33;2.60;;;20.00;99.90;;;;;;5052390;28;20178;-80
2021/05/10 01:34:03;;;;;;;6.47;2.77;;;19.90;99.90;;;;;;5052140;28;20548;-80
2021/05/10 01:36:29;;;;;;;4.37;2.57;;;19.90;99.90;;;;;;5053513;28;20185;-79
2021/05/10 01:38:55;;;;;;;5.30;2.60;;;20.10;99.90;;;;;;5053754;28;20178;-80
2021/05/10 01:41:20;;;;;;;3.77;2.20;;;19.90;99.90;;;;;;5052234;28;20221;-82
2021/05/10 01:43:46;;;;;;;4.57;2.30;;;19.90;99.90;;;;;;5053557;28;20245;-80
2021/05/10 01:46:11;;;;;;;4.57;2.10;;;19.60;1.00;;;;;;5053371;28;20250;-79
2021/05/10 01:48:37;;;;;;;4.27;2.40;;;19.70;1.00;;;;;;5053294;28;20182;-79
2021/05/10 01:51:03;;;;;;;4.80;2.33;;;19.80;99.90;;;;;;5052028;28;20170;-80
2021/05/10 01:53:28;;;;;;;3.50;2.17;;;19.60;1.00;;;;;;5052500;28;20185;-79
2021/05/10 01:55:54;;;;;;;3.67;2.13;;;19.60;2.60;;;;;;5053524;28;20244;-79
2021/05/10 01:58:20;;;;;;;5.37;2.13;;;19.60;99.90;;;;;;5053289;28;20562;-80
2021/05/10 02:00:47;;;;;;;5.47;2.33;;;19.50;99.90;;;;;;5052131;28;20673;-80
2021/05/10 02:03:15;;;;;;;4.00;2.00;;;19.60;1.00;;;;;;5052865;28;20197;-80
2021/05/10 02:05:42;;;;;;;3.17;1.63;;;19.50;1.00;;;;;;5053538;28;20625;-78
2021/05/10 02:08:10;;;;;;;4.53;2.43;;;19.40;31.00;;;;;;5053091;28;20211;-80
2021/05/10 02:10:38;;;;;;;4.50;2.23;;;19.40;99.90;;;;;;5053379;28;20228;-79
2021/05/10 02:13:08;;;;;;;4.63;2.40;;;19.40;99.90;;;;;;5051925;28;20663;-81
2021/05/10 02:15:36;;;;;;;4.40;1.90;;;19.30;99.90;;;;;;5053553;28;20193;-79
2021/05/10 02:18:03;;;;;;;5.90;2.40;;;19.50;1.00;;;;;;5052756;28;20169;-79
2021/05/10 02:20:30;;;;;;;4.13;1.90;;;19.40;99.90;;;;;;5053185;28;20255;-79
2021/05/10 02:23:04;;;;;;;3.53;1.70;;;19.50;1.00;;;;;;5053054;28;20271;-78
2021/05/10 02:25:32;;;;;;;4.70;1.90;;;19.40;99.90;;;;;;5053023;28;20172;-80
2021/05/10 02:27:58;;;;;;;3.13;1.70;;;19.40;1.00;;;;;;5052861;28;20601;-79
2021/05/10 02:30:25;;;;;;;5.23;1.87;;;19.70;1.00;;;;;;5052693;28;20220;-78
2021/05/10 02:32:52;;;;;;;4.10;1.60;;;19.60;99.90;;;;;;5052368;28;20181;-79
2021/05/10 02:35:19;;;;;;;2.60;1.70;;;19.50;99.90;;;;;;5051718;28;20620;-80
2021/05/10 02:37:44;;;;;;;3.80;1.80;;;19.50;99.90;;;;;;5051579;28;20180;-80
2021/05/10 02:40:11;;;;;;;3.50;1.77;;;19.50;1.00;;;;;;5052803;28;20172;-80
2021/05/10 02:42:37;;;;;;;3.93;1.90;;;19.40;1.00;;;;;;5051497;28;20231;-79
2021/05/10 02:45:04;;;;;;;4.87;1.90;;;19.40;1.00;;;;;;5051636;28;20177;-79
2021/05/10 02:47:30;;;;;;;4.03;1.87;;;19.40;1.00;;;;;;5052322;28;20207;-80
2021/05/10 02:49:56;;;;;;;4.83;2.23;;;19.30;99.90;;;;;;5051426;28;20259;-79
2021/05/10 02:52:22;;;;;;;4.17;2.20;;;19.30;1.00;;;;;;5052694;28;20165;-79
2021/05/10 02:54:48;;;;;;;4.43;2.30;;;19.20;1.00;;;;;;5057919;28;20176;-79
2021/05/10 02:57:14;;;;;;;5.77;2.23;;;19.20;1.00;;;;;;5072749;28;20191;-79
2021/05/10 02:59:39;;;;;;;6.23;1.90;;;19.10;1.00;;;;;;5071431;28;20213;-78
2021/05/10 03:02:05;;;;;;;4.57;2.20;;;19.00;99.90;;;;;;5072397;28;20207;-79
2021/05/10 03:04:31;;;;;;;6.90;2.53;;;18.90;1.00;;;;;;5073734;28;20176;-79
2021/05/10 03:06:57;;;;;;;3.63;2.60;;;19.00;1.00;;;;;;5076472;28;20207;-79
2021/05/10 03:09:22;;;;;;;6.97;2.73;;;18.90;99.90;;;;;;5076658;28;20664;-80
2021/05/10 03:11:48;;;;;;;6.57;2.67;;;18.80;99.90;;;;;;5076565;28;20165;-80
2021/05/10 03:14:14;;;;;;;6.20;3.00;;;18.80;99.90;;;;;;5075012;28;20176;-79
2021/05/10 03:16:39;;;;;;;6.93;3.10;;;18.70;1.00;;;;;;5076232;28;20175;-79
2021/05/10 03:19:09;;;;;;;4.50;3.10;;;18.70;1.00;;;;;;5076529;28;20179;-79
2021/05/10 03:21:37;;;;;;;4.80;3.30;;;18.40;1.00;;;;;;5076362;28;20186;-80
2021/05/10 03:24:04;;;;;;;4.60;2.83;;;18.20;1.00;;;;;;5076284;28;20636;-79
2021/05/10 03:26:30;;;;;;;5.00;3.10;;;17.80;1.00;;;;;;5076055;28;20245;-79
2021/05/10 03:28:56;;;;;;;4.90;3.27;;;17.60;4.40;;;;;;5076184;28;20169;-79
2021/05/10 03:31:22;;;;;;;4.87;3.60;;;17.60;16.20;;;;;;5075881;28;20175;-78
2021/05/10 03:33:47;;;;;;;4.30;3.50;;;17.40;27.30;;;;;;5075915;28;20188;-80
2021/05/10 03:36:13;;;;;;;6.07;4.37;;;17.40;40.00;;;;;;5076248;28;20243;-79
2021/05/10 03:38:39;;;;;;;6.70;4.17;;;17.40;45.40;;;;;;5076091;28;20199;-80
2021/05/10 03:41:04;;;;;;;6.40;4.37;;;17.30;49.30;;;;;;5075975;28;20190;-79
2021/05/10 03:43:30;;;;;;;6.80;4.47;;;17.20;57.60;;;;;;5075833;28;20636;-80
2021/05/10 03:45:55;;;;;;;5.83;4.17;;;17.10;59.10;;;;;;5075517;28;20172;-79
2021/05/10 03:48:21;;;;;;;7.67;4.70;;;17.00;65.80;;;;;;5075580;28;20229;-79
2021/05/10 03:50:47;;;;;;;7.67;4.53;;;16.90;70.00;;;;;;5075642;28;20204;-79
2021/05/10 03:53:12;;;;;;;6.87;4.50;;;16.90;74.40;;;;;;5074434;28;20210;-80
2021/05/10 03:55:39;;;;;;;7.00;5.07;;;16.90;75.50;;;;;;5075394;28;20168;-79
2021/05/10 03:58:05;;;;;;;7.20;4.50;;;16.80;81.20;;;;;;5075727;28;20222;-78
2021/05/10 04:00:31;;;;;;;7.37;4.47;;;16.80;84.10;;;;;;5075071;28;20179;-79
2021/05/10 04:02:59;;;;;;;6.40;4.80;;;16.80;84.90;;;;;;5075368;28;20257;-80
2021/05/10 04:08:41;;;;;;;8.40;4.87;;;16.70;90.10;;;;;;5075310;28;20794;-80
2021/05/10 04:11:30;;;;;;;7.63;5.23;;;16.70;90.40;;;;;;5074965;28;20571;-80
2021/05/10 04:13:57;;;;;;;8.47;5.00;;;16.60;90.80;;;;;;5075014;28;20199;-79
2021/05/10 04:16:23;;;;;;;7.27;5.07;;;16.70;91.00;;;;;;5074246;28;20164;-79
2021/05/10 04:18:48;;;;;;;6.57;4.83;;;16.70;91.40;;;;;;5074435;28;20686;-79
2021/05/10 04:21:14;;;;;;;4.90;4.00;;;16.70;90.90;;;;;;5074796;28;20176;-79
2021/05/10 04:23:40;;;;;;;5.80;3.30;;;16.70;87.80;;;;;;5073835;28;20177;-80
2021/05/10 04:26:05;;;;;;;4.00;2.60;;;16.60;83.60;;;;;;5074829;28;20172;-80
2021/05/10 04:28:33;;;;;;;5.53;2.20;;;16.40;83.90;;;;;;5073303;28;20215;-79
2021/05/10 04:30:59;;;;;;;5.33;2.50;;;16.30;86.10;;;;;;5074647;28;20165;-80
2021/05/10 04:33:34;;;;;;;3.63;2.10;;;16.30;86.20;;;;;;5073357;28;20196;-79
2021/05/10 04:36:01;;;;;;;4.27;2.13;;;16.20;85.90;;;;;;5073526;28;20625;-80
2021/05/10 04:38:27;;;;;;;4.23;1.93;;;16.20;86.20;;;;;;5073697;28;20204;-79
2021/05/10 04:40:56;;;;;;;5.87;2.40;;;16.20;86.90;;;;;;5074701;28;20174;-81
2021/05/10 04:43:23;;;;;;;2.20;1.90;;;16.30;88.10;;;;;;5074316;28;20175;-79
2021/05/10 04:45:49;;;;;;;3.33;1.77;;;16.10;86.60;;;;;;5074440;28;20621;-80
2021/05/10 04:48:15;;;;;;;4.87;2.10;;;16.10;87.00;;;;;;5073436;28;20218;-80
2021/05/10 04:50:40;;;;;;;3.97;1.90;;;16.20;86.30;;;;;;5074245;28;20176;-79
2021/05/10 04:53:11;;;;;;;4.67;1.87;;;16.20;82.70;;;;;;5073390;28;20607;-79
2021/05/10 04:55:37;;;;;;;2.47;1.60;;;16.20;81.70;;;;;;5072930;28;20180;-79
2021/05/10 04:58:03;;;;;;;2.57;1.57;;;16.10;81.70;;;;;;5072856;28;20225;-79
2021/05/10 05:00:28;;;;;;;4.70;2.00;;;16.10;80.10;;;;;;5074070;28;20227;-80
2021/05/10 05:02:54;;;;;;;4.73;2.00;;;16.10;80.40;;;;;;5072569;28;20579;-79
2021/05/10 05:05:20;;;;;;;2.77;1.63;;;16.10;79.30;;;;;;5074240;28;20246;-80
2021/05/10 05:07:46;;;;;;;4.33;2.40;;;16.20;77.40;;;;;;5073961;28;20672;-79
2021/05/10 05:10:12;;;;;;;3.17;2.33;;;16.30;75.70;;;;;;5072483;28;20314;-80
2021/05/10 05:12:38;;;;;;;2.47;1.60;;;16.10;73.70;;;;;;5073641;28;20184;-81
2021/05/10 05:15:08;;;;;;;2.80;1.73;;;16.10;73.90;;;;;;5072229;28;20518;-79
2021/05/10 05:17:37;;;;;;;2.10;1.60;;;16.10;70.20;;;;;;5073872;28;20200;-79
2021/05/10 05:20:04;;;;;;;2.47;1.53;;;16.10;70.10;;;;;;5073762;28;20525;-80
2021/05/10 05:22:30;;;;;;;2.20;1.60;;;16.20;70.10;;;;;;5073507;28;20198;-79
2021/05/10 05:24:57;;;;;;;3.20;1.70;;;16.30;66.70;;;;;;5073633;28;20634;-79
2021/05/10 05:27:23;;;;;;;3.77;1.73;;;16.10;64.70;;;;;;5073098;28;20198;-80
2021/05/10 05:29:49;;;;;;;2.23;1.47;;;16.10;63.80;;;;;;5071592;28;20584;-82
2021/05/10 05:32:15;;;;;;;4.63;2.57;;;16.10;61.80;;;;;;5073194;28;20172;-80
2021/05/10 05:34:40;;;;;;;2.63;1.37;;;16.10;62.30;;;;;;5073410;28;20188;-80
2021/05/10 05:37:06;;;;;;;3.90;2.00;;;16.10;64.40;;;;;;5071635;28;20172;-79
2021/05/10 05:39:32;;;;;;;2.63;1.63;;;16.00;65.50;;;;;;5073031;28;20167;-78
2021/05/10 05:42:08;;;;;;;;;;;;;;;;;;;;;
2021/05/10 05:44:36;;;;;;;3.00;1.87;;;16.00;63.60;;;;;;5074232;28;20160;-80
2021/05/10 05:47:04;;;;;;;2.80;1.87;;;15.90;63.60;;;;;;5071825;28;20219;-79
2021/05/10 05:49:34;;;;;;;3.73;1.70;;;16.00;64.80;;;;;;5072868;28;20203;-79
2021/05/10 05:52:01;;;;;;;4.87;1.93;;;16.00;64.10;;;;;;5071279;28;20187;-79
2021/05/10 05:54:27;;;;;;;1.83;1.50;;;15.90;65.60;;;;;;5073230;28;20254;-79
2021/05/10 05:56:53;;;;;;;3.90;1.90;;;15.90;66.70;;;;;;5070617;28;20198;-79
2021/05/10 05:59:18;;;;;;;3.00;1.90;;;15.80;73.10;;;;;;5072551;28;20226;-79
2021/05/10 06:01:45;;;;;;;3.27;2.20;;;15.80;78.70;;;;;;5070667;28;20226;-80
2021/05/10 06:04:10;;;;;;;4.07;2.33;;;15.80;79.60;;;;;;5070617;28;20199;-80
2021/05/10 06:06:37;;;;;;;4.70;1.97;;;15.80;81.00;;;;;;5071678;28;20196;-81
2021/05/10 06:09:06;;;;;;;4.00;2.13;;;15.70;81.80;;;;;;5060070;28;20180;-80
2021/05/10 06:11:32;;;;;;;4.90;2.00;;;15.70;81.80;;;;;;5051417;28;20174;-79
2021/05/10 06:13:58;;;;;;;4.30;1.80;;;15.70;83.40;;;;;;5050776;28;20181;-78
2021/05/10 06:16:29;;;;;;;4.03;2.17;;;15.70;84.00;;;;;;5058497;28;20185;-79
2021/05/10 06:18:55;;;;;;;2.93;2.00;;;15.80;84.70;;;;;;5071882;28;20180;-80
2021/05/10 06:21:21;;;;;;;4.03;2.10;;;15.80;84.80;;;;;;5064436;28;20181;-80
2021/05/10 06:23:48;;;;;;;4.93;1.90;;;15.90;81.70;;;;;;5053072;28;20200;-81
2021/05/10 06:26:14;;;;;;;4.57;2.53;;;15.90;83.90;;;;;;5071262;28;20186;-80
2021/05/10 06:28:40;;;;;;;4.03;2.30;;;15.90;88.80;;;;;;5072240;28;20272;-80
2021/05/10 06:31:07;;;;;;;4.63;2.83;;;15.70;91.10;;;;;;5072052;28;20205;-81
2021/05/10 06:33:33;;;;;;;6.40;2.60;;;15.70;92.00;;;;;;5069972;28;20204;-79
2021/05/10 06:35:59;;;;;;;4.37;2.70;;;15.80;91.50;;;;;;5065268;28;20263;-79
2021/05/10 06:38:24;;;;;;;4.07;2.43;;;15.80;91.10;;;;;;5070690;28;20182;-79
2021/05/10 06:40:50;;;;;;;4.23;2.63;;;16.00;87.50;;;;;;5081027;28;20635;-81
2021/05/10 06:43:16;;;;;;;5.03;2.83;;;16.00;85.00;;;;;;5071546;28;20223;-80
2021/05/10 06:45:41;;;;;;;4.90;2.77;;;16.10;85.80;;;;;;5080922;28;20191;-79
2021/05/10 06:48:07;;;;;;;4.97;2.70;;;16.10;82.20;;;;;;5069835;28;20220;-79
2021/05/10 06:50:32;;;;;;;5.30;3.27;;;16.10;76.50;;;;;;5071434;28;20191;-80
2021/05/10 06:52:58;;;;;;;3.63;2.57;;;16.10;74.80;;;;;;5074308;28;20243;-80
2021/05/10 06:55:24;;;;;;;6.60;3.00;;;16.20;71.90;;;;;;5091033;28;20176;-80
2021/05/10 06:57:49;;;;;;;4.10;2.30;;;16.30;72.50;;;;;;5090239;28;20591;-80
2021/05/10 07:00:15;;;;;;;5.50;2.90;;;16.30;70.60;;;;;;5071601;28;21194;-78
2021/05/10 07:02:41;;;;;;;5.80;2.73;;;16.30;68.20;;;;;;5071337;28;20288;-79
2021/05/10 07:05:07;;;;;;;4.77;2.50;;;16.40;65.20;;;;;;5068780;28;20260;-79
2021/05/10 07:07:33;;;;;;;4.40;2.80;;;16.40;63.10;;;;;;5071263;28;20207;-79
2021/05/10 07:09:59;;;;;;;3.60;2.40;;;16.50;58.90;;;;;;5075471;28;20245;-80
2021/05/10 07:12:26;;;;;;;4.30;2.70;;;16.60;54.40;;;;;;5081932;28;20639;-81
2021/05/10 07:14:52;;;;;;;6.47;2.20;;;16.70;53.10;;;;;;5072902;28;20176;-80
2021/05/10 07:17:17;;;;;;;5.83;2.63;;;16.70;48.10;;;;;;5089628;28;20180;-81
2021/05/10 07:19:43;;;;;;;7.27;3.10;;;16.70;47.90;;;;;;5085319;28;20176;-80
2021/05/10 07:22:09;;;;;;;5.70;2.60;;;16.70;42.60;;;;;;5070965;28;20361;-80
2021/05/10 07:24:34;;;;;;;6.73;2.63;;;16.60;42.30;;;;;;5071699;28;20168;-80
2021/05/10 07:27:00;;;;;;;5.53;2.60;;;16.50;45.30;;;;;;5071440;28;20211;-80
2021/05/10 07:29:26;;;;;;;5.17;2.90;;;16.60;47.00;;;;;;5071234;28;20730;-79
2021/05/10 07:31:51;;;;;;;4.37;2.60;;;16.70;39.20;;;;;;5070080;28;20168;-79
2021/05/10 07:34:17;;;;;;;5.07;2.97;;;16.70;31.80;;;;;;5070447;28;20263;-78
2021/05/10 07:36:43;;;;;;;3.97;2.40;;;16.80;32.80;;;;;;5071401;28;20641;-81
2021/05/10 07:39:09;;;;;;;5.57;2.70;;;16.80;35.20;;;;;;5071604;28;20164;-80
2021/05/10 07:41:34;;;;;;;5.80;3.07;;;16.80;33.10;;;;;;5071544;28;20168;-79
2021/05/10 07:44:01;;;;;;;5.67;3.20;;;16.80;34.30;;;;;;5070180;28;20565;-78
2021/05/10 07:46:27;;;;;;;6.17;3.47;;;16.90;29.60;;;;;;5084870;28;20168;-81
2021/05/10 07:48:53;;;;;;;4.33;3.10;;;16.80;30.00;;;;;;5090053;28;20735;-80
2021/05/10 07:51:18;;;;;;;4.90;3.30;;;16.70;29.20;;;;;;5091820;28;20172;-79
2021/05/10 07:53:44;;;;;;;9.87;3.83;;;16.60;32.10;;;;;;5089539;28;20247;-81
2021/05/10 07:56:09;;;;;;;8.03;3.83;;;16.60;36.70;;;;;;5068373;28;20628;-81
2021/05/10 07:58:41;;;;;;;7.63;3.63;;;16.60;31.60;;;;;;5062225;28;20184;-81
2021/05/10 08:01:07;;;;;;;6.27;3.43;;;16.60;32.40;;;;;;5053244;28;20189;-79
2021/05/10 08:03:33;;;;;;;7.67;3.67;;;16.50;29.20;;;;;;5054944;28;20276;-80
2021/05/10 08:06:01;;;;;;;5.93;3.60;;;16.50;29.40;;;;;;5054969;28;20173;-81
2021/05/10 08:08:27;;;;;;;6.50;3.60;;;16.60;25.70;;;;;;5057397;28;20272;-80
2021/05/10 08:10:53;;;;;;;6.97;4.00;;;16.50;21.90;;;;;;5056893;28;20205;-81
2021/05/10 08:13:20;;;;;;;7.20;4.63;;;16.50;20.30;;;;;;5057151;28;20164;-80
2021/05/10 08:15:46;;;;;;;5.77;3.90;;;16.50;19.70;;;;;;5054301;28;20540;-81
2021/05/10 08:18:13;;;;;;;7.50;3.63;;;16.60;21.60;;;;;;5053315;28;20638;-80
2021/05/10 08:20:39;;;;;;;6.57;3.70;;;16.60;21.80;;;;;;5066651;28;20188;-80
2021/05/10 08:23:05;;;;;;;7.93;3.97;;;16.70;21.40;;;;;;5066114;28;20225;-81
2021/05/10 08:25:31;;;;;;;7.47;4.23;;;16.90;21.40;;;;;;5073932;28;20269;-81
2021/05/10 08:27:56;;;;;;;5.40;3.67;;;16.90;17.40;;;;;;5074013;28;20684;-82
2021/05/10 08:30:22;;;;;;;6.40;3.30;;;16.90;8.40;;;;;;5074143;28;20309;-80
2021/05/10 08:32:48;;;;;;;8.00;3.50;;;17.00;1.00;;;;;;5076300;28;20187;-81
2021/05/10 08:35:14;;;;;;;6.10;3.10;;;16.90;1.00;;;;;;5075354;28;20255;-80
2021/05/10 08:37:39;;;;;;;7.60;3.13;;;16.90;1.00;;;;;;5075012;28;20280;-79
2021/05/10 08:40:06;;;;;;;9.37;3.40;;;16.90;1.00;;;;;;5073464;28;20226;-81
2021/05/10 08:42:32;;;;;;;7.90;3.20;;;16.90;1.00;;;;;;5073853;28;20195;-80
2021/05/10 08:45:01;;;;;;;5.67;2.50;;;16.90;1.00;;;;;;5073977;28;20195;-80
2021/05/10 08:47:33;;;;;;;10.13;3.00;;;16.70;1.00;;;;;;5073739;28;20204;-80
2021/05/10 08:50:05;;;;;;;6.33;2.90;;;16.80;1.00;;;;;;5073481;28;20530;-80
2021/05/10 08:52:33;;;;;;;6.37;2.63;;;16.80;1.00;;;;;;5065739;28;20286;-80
2021/05/10 08:54:58;;;;;;;6.10;2.80;;;16.80;1.00;;;;;;5056628;28;20204;-79
2021/05/10 08:57:24;;;;;;;5.50;2.60;;;17.00;1.00;;;;;;5053557;28;20212;-80
2021/05/10 08:59:50;;;;;;;4.97;2.57;;;16.90;1.00;;;;;;5053549;28;20204;-80
2021/05/10 09:02:15;;;;;;;4.67;2.50;;;16.80;1.00;;;;;;5052998;28;20188;-80
2021/05/10 09:04:43;;;;;;;5.13;2.57;;;16.80;1.00;;;;;;5053199;28;20196;-81
2021/05/10 09:07:18;;;;;;;4.43;2.37;;;16.70;1.00;;;;;;5052851;28;20205;-81
2021/05/10 09:10:01;;;;;;;4.80;2.20;;;16.80;1.00;;;;;;5051962;28;20206;-80
2021/05/10 09:12:47;;;;;;;8.50;2.87;;;16.90;1.00;;;;;;5053218;28;20204;-80
2021/05/10 09:15:22;;;;;;;5.40;2.47;;;17.10;1.00;;;;;;5051395;28;20664;-81
2021/05/10 09:18:01;;;;;;;8.43;2.37;;;17.30;1.00;;;;;;5052826;28;20179;-81
2021/05/10 09:20:33;;;;;;;7.13;2.27;;;17.50;1.00;;;;;;5076661;28;20168;-80
2021/05/10 09:23:01;;;;;;;6.87;2.50;;;17.30;1.00;;;;;;5092143;28;20179;-81
2021/05/10 09:25:34;;;;;;;7.77;2.60;;;17.30;99.90;;;;;;5091891;28;20202;-80
2021/05/10 09:28:14;;;;;;;7.57;2.53;;;17.40;1.00;;;;;;5086291;28;20200;-80
2021/05/10 09:30:45;;;;;;;8.07;2.20;;;17.40;1.00;;;;;;5071391;28;20318;-80
2021/05/10 09:33:24;;;;;;;10.60;2.67;;;17.30;1.00;;;;;;5070621;28;20195;-82
2021/05/10 09:35:51;;;;;;;10.50;2.57;;;17.40;99.90;;;;;;5070797;28;20293;-81
2021/05/10 09:38:25;;;;;;;8.83;2.43;;;17.40;99.90;;;;;;5073411;28;20175;-81
2021/05/10 09:40:56;;;;;;;8.13;2.90;;;17.40;99.90;;;;;;5072597;28;20164;-80
2021/05/10 09:43:27;;;;;;;6.23;2.23;;;17.60;99.90;;;;;;5071776;28;20172;-81
2021/05/10 09:45:54;;;;;;;9.23;2.27;;;17.80;99.90;;;;;;5091721;28;20255;-81
2021/05/10 09:48:22;;;;;;;10.30;2.40;;;17.90;27.70;;;;;;5092183;28;20292;-79
2021/05/10 09:51:02;;;;;;;8.37;2.63;;;18.00;1.00;;;;;;5091384;28;20175;-80
2021/05/10 09:53:38;;;;;;;5.10;2.20;;;18.10;99.90;;;;;;5091416;28;20572;-80
2021/05/10 09:56:32;;;;;;;6.63;2.17;;;18.20;99.90;;;;;;5092021;28;20163;-79
2021/05/10 09:59:02;;;;;;;6.23;2.13;;;18.40;99.90;;;;;;5092477;28;20190;-80
2021/05/10 10:01:48;;;;;;;5.50;1.90;;;18.60;1.00;;;;;;5093403;28;20176;-80
2021/05/10 10:04:16;;;;;;;6.67;2.20;;;19.00;1.00;;;;;;5091500;28;20359;-81
2021/05/10 10:06:41;;;;;;;5.90;2.40;;;18.80;1.00;;;;;;5091757;28;20167;-80
2021/05/10 10:09:07;;;;;;;6.07;2.53;;;18.70;99.90;;;;;;5091173;28;20172;-80
2021/05/10 10:11:34;;;;;;;8.80;2.37;;;18.40;1.00;;;;;;5093025;28;20663;-81
2021/05/10 10:14:06;;;;;;;7.10;2.90;;;18.40;99.90;;;;;;5090736;28;20168;-80
2021/05/10 10:16:34;;;;;;;5.97;2.13;;;18.60;99.90;;;;;;5091193;28;20263;-80
2021/05/10 10:19:02;;;;;;;5.30;1.90;;;18.70;1.00;;;;;;5092038;28;20176;-80
2021/05/10 10:21:29;;;;;;;5.57;1.83;;;18.50;99.90;;;;;;5072356;28;20185;-80
2021/05/10 10:23:59;;;;;;;5.93;2.03;;;18.20;1.00;;;;;;5072011;28;20634;-79
2021/05/10 10:26:27;;;;;;;6.07;2.30;;;18.10;1.00;;;;;;5072216;28;20217;-79
2021/05/10 10:28:53;;;;;;;7.90;2.23;;;18.10;99.90;;;;;;5072393;28;20628;-80
2021/05/10 10:31:31;;;;;;;4.47;2.30;;;18.30;1.00;;;;;;5071654;28;20188;-80
2021/05/10 10:34:13;;;;;;;6.40;2.97;;;18.40;1.00;;;;;;5071592;28;20696;-81
2021/05/10 10:36:49;;;;;;;6.20;2.83;;;18.50;99.90;;;;;;5072586;28;20164;-81
2021/05/10 10:39:21;;;;;;;6.23;1.97;;;18.50;99.90;;;;;;5071558;28;20256;-80
2021/05/10 10:41:57;;;;;;;5.17;2.00;;;18.40;53.90;;;;;;5071562;28;20691;-79
2021/05/10 10:44:47;;;;;;;7.17;1.83;;;18.30;99.90;;;;;;5070094;28;20227;-80
2021/05/10 10:47:16;;;;;;;7.03;2.17;;;18.40;99.90;;;;;;5071805;28;20293;-80
2021/05/10 10:49:43;;;;;;;6.27;2.10;;;18.50;99.90;;;;;;5071746;28;20164;-81
2021/05/10 10:52:23;;;;;;;7.37;2.63;;;18.90;1.00;;;;;;5069599;28;20181;-81
2021/05/10 10:55:22;;;;;;;6.50;2.27;;;19.00;1.00;;;;;;5072202;28;20172;-80
2021/05/10 10:57:47;;;;;;;5.03;2.27;;;19.10;1.00;;;;;;5066669;28;20201;-79
2021/05/10 11:00:16;;;;;;;6.77;2.40;;;18.90;1.00;;;;;;5069743;28;20172;-80
2021/05/10 11:02:54;;;;;;;5.53;2.47;;;18.80;1.00;;;;;;5070223;28;20203;-79
2021/05/10 11:05:22;;;;;;;5.83;2.00;;;19.00;99.90;;;;;;5070284;28;20727;-79
2021/05/10 11:07:53;;;;;;;6.40;2.00;;;18.70;99.90;;;;;;5072112;28;20257;-79
2021/05/10 11:10:49;;;;;;;4.37;2.20;;;18.70;99.90;;;;;;5069408;28;20183;-79
2021/05/10 11:13:28;;;;;;;6.07;1.40;;;18.60;1.00;;;;;;5071011;28;20167;-79
2021/05/10 11:15:57;;;;;;;4.73;1.70;;;18.70;99.90;;;;;;5071522;28;20171;-79
2021/05/10 11:18:43;;;;;;;4.60;1.67;;;18.80;99.90;;;;;;5071080;28;20171;-80
2021/05/10 11:21:29;;;;;;;7.53;2.60;;;18.90;99.90;;;;;;5088018;28;20525;-81
2021/05/10 11:23:59;;;;;;;7.37;2.00;;;19.00;99.90;;;;;;5091399;28;20168;-80
2021/05/10 11:26:51;;;;;;;9.37;2.73;;;18.80;99.90;;;;;;5092577;28;20180;-81
2021/05/10 11:29:25;;;;;;;8.73;2.47;;;18.90;99.90;;;;;;5077789;28;20532;-81
2021/05/10 11:31:53;;;;;;;7.60;2.10;;;19.00;99.90;;;;;;5078584;28;20175;-80
2021/05/10 11:34:29;;;;;;;8.97;2.53;;;18.90;99.90;;;;;;5076267;28;20257;-79
2021/05/10 11:36:55;;;;;;;4.90;2.10;;;18.90;99.90;;;;;;5077034;28;20194;-80
2021/05/10 11:39:27;;;;;;;8.53;2.00;;;18.90;99.90;;;;;;5075702;28;20207;-79
2021/05/10 11:42:19;;;;;;;6.83;2.13;;;18.90;1.00;;;;;;5077230;28;20164;-78
2021/05/10 11:44:45;;;;;;;6.03;2.03;;;19.10;1.00;;;;;;5086365;28;20251;-79
2021/05/10 11:47:16;;;;;;;5.90;2.10;;;19.10;1.00;;;;;;5098495;28;20204;-81
2021/05/10 11:49:46;;;;;;;7.77;2.97;;;19.20;1.00;;;;;;5098184;28;20192;-80
2021/05/10 11:52:20;;;;;;;7.00;2.80;;;19.10;1.00;;;;;;5097412;28;20176;-80
2021/05/10 11:54:51;;;;;;;7.87;2.90;;;19.00;1.00;;;;;;5099061;28;20251;-80
2021/05/10 11:57:21;;;;;;;7.13;2.00;;;19.00;1.00;;;;;;5097803;28;20593;-80
2021/05/10 12:00:04;;;;;;;8.73;2.90;;;19.00;99.90;;;;;;5096873;28;20706;-80
2021/05/10 12:02:33;;;;;;;8.27;2.67;;;19.20;99.90;;;;;;5097389;28;20212;-80
2021/05/10 12:05:04;;;;;;;7.47;2.20;;;19.50;1.00;;;;;;5095867;28;20167;-81
2021/05/10 12:07:32;;;;;;;5.20;1.90;;;19.60;1.00;;;;;;5094434;28;20218;-81
2021/05/10 12:10:01;;;;;;;5.30;2.13;;;19.90;1.00;;;;;;5093312;28;20180;-80
2021/05/10 12:12:44;;;;;;;6.47;1.80;;;19.80;99.90;;;;;;5094601;28;20321;-80
2021/05/10 12:15:25;;;;;;;8.27;2.20;;;19.70;99.90;;;;;;5094850;28;20263;-82
2021/05/10 12:17:54;;;;;;;7.37;2.10;;;19.60;99.90;;;;;;5093871;28;20165;-81
2021/05/10 12:20:22;;;;;;;9.13;2.17;;;19.50;99.90;;;;;;5081558;28;20180;-80
2021/05/10 12:22:52;;;;;;;7.00;1.97;;;19.70;99.90;;;;;;5074267;28;20204;-80
2021/05/10 12:25:27;;;;;;;6.80;2.00;;;19.90;99.90;;;;;;5072829;28;20176;-81
2021/05/10 12:28:11;;;;;;;7.97;2.50;;;20.10;99.90;;;;;;5073425;28;20728;-79
2021/05/10 12:30:46;;;;;;;6.27;2.33;;;20.30;99.90;;;;;;5074188;28;20472;-79
2021/05/10 12:33:25;;;;;;;5.60;2.00;;;20.50;99.90;;;;;;5073780;28;20205;-80
2021/05/10 12:35:53;;;;;;;5.63;1.77;;;20.50;99.90;;;;;;5067344;28;20310;-82
2021/05/10 12:38:26;;;;;;;6.63;2.30;;;20.40;78.50;;;;;;5056349;28;20323;-81
2021/05/10 12:40:52;;;;;;;7.80;2.40;;;20.40;10.20;;;;;;5052896;28;20176;-80
2021/05/10 12:43:22;;;;;;;5.27;1.90;;;20.30;1.00;;;;;;5053118;28;20682;-81
2021/05/10 12:45:57;;;;;;;5.63;1.50;;;20.50;1.00;;;;;;5089266;28;20176;-79
2021/05/10 12:48:45;;;;;;;6.97;1.70;;;20.40;1.00;;;;;;5093615;28;20645;-81
2021/05/10 12:51:14;;;;;;;6.30;1.87;;;20.40;1.00;;;;;;5092840;28;20217;-81
2021/05/10 12:53:58;;;;;;;4.97;1.93;;;20.50;1.00;;;;;;5092506;28;20205;-80
2021/05/10 12:56:26;;;;;;;6.73;1.90;;;20.60;1.00;;;;;;5091840;28;20202;-82
2021/05/10 12:58:52;;;;;;;6.93;1.83;;;20.50;1.00;;;;;;5093629;28;20161;-81
2021/05/10 13:01:26;;;;;;;5.53;1.70;;;20.60;1.00;;;;;;5092412;28;20667;-82